createdAt,value
2018-09-15T00:02:19.701Z,95562.83
2018-09-15T00:04:50.296Z,95557.86
2018-09-15T00:07:21.237Z,95562.49
2018-09-15T00:09:51.582Z,95560.93
2018-09-15T00:12:21.911Z,95569.80
2018-09-15T00:14:52.298Z,95562.95
2018-09-15T00:17:23.110Z,95564.22
2018-09-15T00:19:53.704Z,95562.08
2018-09-15T00:22:24.131Z,95566.36
2018-09-15T00:24:54.621Z,95566.19
2018-09-15T00:27:26.103Z,95567.70
2018-09-15T00:29:55.972Z,95566.36
2018-09-15T00:32:26.451Z,95564.97
2018-09-15T00:34:56.763Z,95567.92
2018-09-15T00:37:27.726Z,95567.54
2018-09-15T00:39:57.992Z,95572.91
2018-09-15T00:42:28.363Z,95568.28
2018-09-15T00:44:59.162Z,95569.77
2018-09-15T00:47:30.731Z,95568.36
2018-09-15T00:50:01.070Z,95571.27
2018-09-15T00:52:31.194Z,95569.70
2018-09-15T00:55:01.477Z,95569.70
2018-09-15T00:57:32.239Z,95572.31
2018-09-15T01:00:02.682Z,95568.73
2018-09-15T01:02:33.562Z,95565.58
2018-09-15T01:05:04.070Z,95567.80
2018-09-15T01:07:34.920Z,95565.33
2018-09-15T01:10:05.382Z,95564.87
2018-09-15T01:12:35.898Z,95563.99
2018-09-15T01:15:06.339Z,95564.87
2018-09-15T01:17:37.042Z,95570.05
2018-09-15T01:20:07.388Z,95565.71
2018-09-15T01:22:37.893Z,95562.00
2018-09-15T01:25:08.043Z,95563.44
2018-09-15T01:27:39.447Z,95567.55
2018-09-15T01:30:09.885Z,95563.81
2018-09-15T01:32:40.452Z,95567.28
2018-09-15T01:35:10.782Z,95563.09
2018-09-15T01:37:41.481Z,95564.55
2018-09-15T01:40:12.031Z,95516.45
2018-09-15T01:42:42.366Z,95561.36
2018-09-15T01:45:12.674Z,95567.16
2018-09-15T01:47:43.308Z,95561.42
2018-09-15T01:50:13.903Z,95564.99
2018-09-15T01:52:44.123Z,95565.61
2018-09-15T01:55:14.552Z,95562.30
2018-09-15T01:59:10.459Z,95564.77
2018-09-15T02:01:40.861Z,95566.08
2018-09-15T02:04:11.219Z,95565.06
2018-09-15T02:06:41.897Z,95559.49
2018-09-15T02:09:15.079Z,95557.80
2018-09-15T02:11:45.500Z,95568.51
2018-09-15T02:14:16.216Z,95559.61
2018-09-15T02:16:47.690Z,95561.98
2018-09-15T02:19:18.246Z,95564.50
2018-09-15T02:21:48.760Z,95562.78
2018-09-15T02:24:19.164Z,95566.30
2018-09-15T02:26:50.041Z,95564.11
2018-09-15T02:29:20.305Z,95568.46
2018-09-15T02:31:50.761Z,95563.45
2018-09-15T02:34:21.328Z,95563.16
2018-09-15T02:36:52.449Z,95557.50
2018-09-15T02:39:22.700Z,95555.27
2018-09-15T02:41:52.703Z,95560.03
2018-09-15T02:44:23.055Z,95566.66
2018-09-15T02:46:53.830Z,95566.66
2018-09-15T02:49:24.464Z,95560.36
2018-09-15T02:51:55.083Z,95570.50
2018-09-15T02:54:25.614Z,95566.05
2018-09-15T02:56:56.462Z,95569.07
2018-09-15T02:59:26.770Z,95576.05
2018-09-15T03:01:56.993Z,95577.20
2018-09-15T03:04:27.741Z,95573.89
2018-09-15T03:06:58.517Z,95569.75
2018-09-15T03:09:28.890Z,95572.17
2018-09-15T03:11:59.546Z,95576.65
2018-09-15T03:14:30.029Z,95575.92
2018-09-15T03:17:01.308Z,95581.86
2018-09-15T03:19:31.643Z,95574.83
2018-09-15T03:22:02.218Z,95576.11
2018-09-15T03:24:32.566Z,95583.13
2018-09-15T03:27:04.088Z,95584.00
2018-09-15T03:29:35.241Z,95578.63
2018-09-15T03:32:05.981Z,95576.68
2018-09-15T03:34:36.819Z,95584.34
2018-09-15T03:37:07.256Z,95583.48
2018-09-15T03:39:37.650Z,95585.31
2018-09-15T03:42:08.299Z,95580.74
2018-09-15T03:44:38.833Z,95592.50
2018-09-15T03:47:11.004Z,95591.33
2018-09-15T03:49:41.514Z,95597.11
2018-09-15T03:52:11.786Z,95600.36
2018-09-15T03:54:42.278Z,95603.10
2018-09-15T03:57:13.283Z,95604.26
2018-09-15T03:59:43.709Z,95605.78
2018-09-15T04:02:14.066Z,95611.48
2018-09-15T04:04:44.314Z,95613.77
2018-09-15T04:07:15.209Z,95613.74
2018-09-15T04:09:45.247Z,95617.19
2018-09-15T04:12:15.678Z,95616.11
2018-09-15T04:14:46.670Z,95618.98
2018-09-15T04:17:17.781Z,95619.90
2018-09-15T04:19:48.278Z,95620.02
2018-09-15T04:22:18.494Z,95622.00
2018-09-15T04:24:48.902Z,95625.42
2018-09-15T04:27:19.457Z,95627.81
2018-09-15T04:29:50.163Z,95629.88
2018-09-15T04:32:20.735Z,95635.62
2018-09-15T04:34:51.839Z,95637.38
2018-09-15T04:37:22.169Z,95640.13
2018-09-15T04:39:52.594Z,95644.99
2018-09-15T04:42:22.751Z,95650.12
2018-09-15T04:44:52.994Z,95648.36
2018-09-15T04:47:55.327Z,95651.74
2018-09-15T04:50:25.594Z,95655.48
2018-09-15T04:52:55.970Z,95654.66
2018-09-15T04:55:26.305Z,95653.39
2018-09-15T04:57:56.794Z,95657.78
2018-09-15T05:00:27.157Z,95659.81
2018-09-15T05:02:57.478Z,95653.86
2018-09-15T05:05:28.619Z,95652.55
2018-09-15T05:07:58.803Z,95656.83
2018-09-15T05:10:29.262Z,95653.84
2018-09-15T05:12:59.783Z,95655.19
2018-09-15T05:15:31.350Z,95659.13
2018-09-15T05:18:01.537Z,95661.09
2018-09-15T05:20:31.679Z,95659.05
2018-09-15T05:23:01.883Z,95655.77
2018-09-15T05:25:33.204Z,95659.53
2018-09-15T05:28:03.655Z,95660.86
2018-09-15T05:30:34.381Z,95655.00
2018-09-15T05:33:04.814Z,95662.16
2018-09-15T05:35:35.856Z,95654.21
2018-09-15T05:38:06.032Z,95661.06
2018-09-15T05:40:36.206Z,95660.47
2018-09-15T05:43:06.349Z,95657.30
2018-09-15T05:45:37.653Z,95653.55
2018-09-15T05:48:08.298Z,95655.84
2018-09-15T05:50:38.846Z,95653.76
2018-09-15T05:53:09.175Z,95658.92
2018-09-15T05:55:40.382Z,95659.59
2018-09-15T05:58:10.845Z,95659.05
2018-09-15T06:00:41.235Z,95662.56
2018-09-15T06:03:11.752Z,95656.63
2018-09-15T06:05:42.593Z,95661.41
2018-09-15T06:08:13.086Z,95658.19
2018-09-15T06:10:43.482Z,95665.19
2018-09-15T06:13:14.002Z,95663.29
2018-09-15T06:15:44.179Z,95661.95
2018-09-15T06:18:13.942Z,95666.94
2018-09-15T06:20:43.661Z,95668.23
2018-09-15T06:23:13.428Z,95664.33
2018-09-15T06:25:43.184Z,95660.34
2018-09-15T06:28:13.019Z,95662.68
2018-09-15T06:30:42.766Z,95653.19
2018-09-15T06:33:12.400Z,95658.34
2018-09-15T06:35:42.331Z,95655.30
2018-09-15T06:38:12.068Z,95652.75
2018-09-15T06:40:41.805Z,95651.35
2018-09-15T06:43:12.640Z,95650.44
2018-09-15T06:45:42.983Z,95650.03
2018-09-15T06:48:12.752Z,95652.95
2018-09-15T06:50:42.477Z,95648.94
2018-09-15T06:53:12.104Z,95645.96
2018-09-15T06:55:41.845Z,95648.87
2018-09-15T06:58:11.454Z,95646.31
2018-09-15T07:00:41.351Z,95645.30
2018-09-15T07:03:11.202Z,95647.77
2018-09-15T07:05:41.022Z,95649.95
2018-09-15T07:08:10.810Z,95645.75
2018-09-15T07:10:40.522Z,95648.87
2018-09-15T07:13:11.045Z,95653.02
2018-09-15T07:15:40.842Z,95648.84
2018-09-15T07:18:10.774Z,95640.59
2018-09-15T07:20:40.531Z,95639.44
2018-09-15T07:23:10.206Z,95633.48
2018-09-15T07:25:39.955Z,95636.52
2018-09-15T07:28:09.677Z,95638.73
2018-09-15T07:30:39.588Z,95636.86
2018-09-15T07:33:09.990Z,95637.80
2018-09-15T07:35:40.000Z,95636.34
2018-09-15T07:38:09.660Z,95632.61
2018-09-15T07:40:39.426Z,95633.81
2018-09-15T07:43:09.462Z,95634.77
2018-09-15T07:45:39.277Z,95634.52
2018-09-15T07:48:09.046Z,95632.48
2018-09-15T07:50:38.858Z,95626.63
2018-09-15T07:53:08.666Z,95626.77
2018-09-15T07:55:38.406Z,95622.71
2018-09-15T07:58:08.198Z,95622.62
2018-09-15T08:00:38.047Z,95618.22
2018-09-15T08:03:07.721Z,95620.34
2018-09-15T08:05:37.435Z,95614.50
2018-09-15T08:08:07.227Z,95620.36
2018-09-15T08:10:37.041Z,95612.06
2018-09-15T08:13:06.849Z,95615.59
2018-09-15T08:15:36.523Z,95609.13
2018-09-15T08:18:06.316Z,95609.53
2018-09-15T08:20:36.005Z,95600.97
2018-09-15T08:23:06.607Z,95598.61
2018-09-15T08:25:36.320Z,95598.34
2018-09-15T08:28:06.228Z,95597.34
2018-09-15T08:30:36.125Z,95593.78
2018-09-15T08:33:06.014Z,95593.67
2018-09-15T08:35:36.310Z,95592.67
2018-09-15T08:38:06.218Z,95586.36
2018-09-15T08:40:35.947Z,95586.58
2018-09-15T08:43:06.344Z,95582.52
2018-09-15T08:45:37.486Z,95583.49
2018-09-15T08:48:07.550Z,95581.66
2018-09-15T08:50:37.361Z,95584.52
2018-09-15T08:53:07.271Z,95578.21
2018-09-15T08:55:37.771Z,95583.28
2018-09-15T08:58:07.447Z,95576.09
2018-09-15T09:00:37.241Z,95574.25
2018-09-15T09:03:07.147Z,95568.53
2018-09-15T09:05:37.070Z,95566.52
2018-09-15T09:08:06.942Z,95558.85
2018-09-15T09:10:36.742Z,95556.48
2018-09-15T09:13:06.472Z,95553.91
2018-09-15T09:15:36.258Z,95552.80
2018-09-15T09:18:06.093Z,95546.33
2018-09-15T09:20:35.730Z,95549.36
2018-09-15T09:23:05.634Z,95542.33
2018-09-15T09:25:35.218Z,95543.75
2018-09-15T09:28:05.017Z,95535.99
2018-09-15T09:30:34.780Z,95537.48
2018-09-15T09:33:04.736Z,95533.66
2018-09-15T09:35:34.586Z,95528.22
2018-09-15T09:38:04.934Z,95531.45
2018-09-15T09:40:34.923Z,95525.11
2018-09-15T09:43:04.721Z,95521.09
2018-09-15T09:45:34.538Z,95524.81
2018-09-15T09:48:04.197Z,95513.45
2018-09-15T09:50:34.045Z,95511.96
2018-09-15T09:53:03.785Z,95513.03
2018-09-15T09:55:33.581Z,95509.41
2018-09-15T09:58:03.576Z,95503.95
2018-09-15T10:00:38.199Z,95510.13
2018-09-15T10:03:08.024Z,95497.80
2018-09-15T10:05:38.363Z,95497.07
2018-09-15T10:08:08.194Z,95493.77
2018-09-15T10:11:09.558Z,95500.47
2018-09-15T10:13:39.334Z,95493.71
2018-09-15T10:16:09.069Z,95488.08
2018-09-15T10:18:38.940Z,95487.13
2018-09-15T10:21:08.694Z,95482.93
2018-09-15T10:23:38.453Z,95484.07
2018-09-15T10:26:08.578Z,95479.72
2018-09-15T10:28:38.372Z,95477.12
2018-09-15T10:31:08.096Z,95477.17
2018-09-15T10:33:37.983Z,95478.53
2018-09-15T10:36:07.808Z,95468.41
2018-09-15T10:38:38.093Z,95475.44
2018-09-15T10:41:08.018Z,95470.29
2018-09-15T10:43:37.760Z,95470.48
2018-09-15T10:46:07.778Z,95469.91
2018-09-15T10:48:37.521Z,95471.70
2018-09-15T10:51:07.322Z,95463.55
2018-09-15T10:53:37.146Z,95451.11
2018-09-15T10:56:07.855Z,95457.77
2018-09-15T10:58:37.718Z,95453.34
2018-09-15T11:01:07.430Z,95459.45
2018-09-15T11:03:37.781Z,95450.06
2018-09-15T11:06:08.505Z,95443.30
2018-09-15T11:08:38.734Z,95445.00
2018-09-15T11:11:09.268Z,95445.65
2018-09-15T11:13:39.669Z,95440.29
2018-09-15T11:16:09.415Z,95443.42
2018-09-15T11:18:39.206Z,95442.66
2018-09-15T11:21:09.029Z,95435.27
2018-09-15T11:23:38.820Z,95381.06
2018-09-15T11:26:08.568Z,95444.06
2018-09-15T11:28:38.307Z,95428.91
2018-09-15T11:31:08.176Z,95426.20
2018-09-15T11:33:38.239Z,95427.98
2018-09-15T11:36:07.875Z,95424.17
2018-09-15T11:38:37.742Z,95428.14
2018-09-15T11:41:07.996Z,95429.19
2018-09-15T11:43:37.972Z,95425.59
2018-09-15T11:46:07.784Z,95422.94
2018-09-15T11:48:37.684Z,95419.12
2018-09-15T11:51:07.533Z,95425.63
2018-09-15T11:53:37.359Z,95424.73
2018-09-15T11:56:07.119Z,95427.95
2018-09-15T11:58:36.894Z,95418.98
2018-09-15T12:01:06.634Z,95420.77
2018-09-15T12:03:36.457Z,95422.22
2018-09-15T12:06:06.207Z,95414.13
2018-09-15T12:08:35.971Z,95420.22
2018-09-15T12:11:05.752Z,95408.11
2018-09-15T12:13:36.003Z,95415.81
2018-09-15T12:16:06.198Z,95417.77
2018-09-15T12:18:36.759Z,95413.36
2018-09-15T12:21:07.172Z,95406.88
2018-09-15T12:23:37.598Z,95411.83
2018-09-15T12:26:08.142Z,95402.89
2018-09-15T12:28:38.654Z,95400.62
2018-09-15T12:31:09.084Z,95399.09
2018-09-15T12:33:40.558Z,95400.86
2018-09-15T12:36:10.806Z,95396.00
2018-09-15T12:38:41.049Z,95393.87
2018-09-15T12:41:11.586Z,95394.58
2018-09-15T12:43:42.248Z,95392.95
2018-09-15T12:46:12.561Z,95386.28
2018-09-15T12:48:43.207Z,95391.91
2018-09-15T12:51:13.757Z,95390.60
2018-09-15T12:53:45.140Z,95386.08
2018-09-15T12:56:15.542Z,95386.86
2018-09-15T12:58:45.635Z,95382.53
2018-09-15T13:01:15.827Z,95382.11
2018-09-15T13:03:46.673Z,95378.94
2018-09-15T13:06:17.288Z,95379.12
2018-09-15T13:08:47.821Z,95376.30
2018-09-15T13:11:18.370Z,95373.66
2018-09-15T13:13:49.498Z,95362.44
2018-09-15T13:16:19.969Z,95370.56
2018-09-15T13:18:50.486Z,95360.64
2018-09-15T13:21:20.806Z,95357.35
2018-09-15T13:23:51.510Z,95360.46
2018-09-15T13:26:22.106Z,95364.98
2018-09-15T13:28:52.425Z,95354.23
2018-09-15T13:31:23.224Z,95358.55
2018-09-15T13:33:54.227Z,95353.95
2018-09-15T13:36:24.734Z,95353.88
2018-09-15T13:38:55.279Z,95354.66
2018-09-15T13:41:26.059Z,95348.63
2018-09-15T13:43:57.383Z,95349.33
2018-09-15T13:46:28.110Z,95351.37
2018-09-15T13:48:58.939Z,95352.15
2018-09-15T13:51:29.263Z,95357.73
2018-09-15T13:54:00.477Z,95348.81
2018-09-15T13:56:30.730Z,95356.45
2018-09-15T13:59:01.220Z,95350.47
2018-09-15T14:01:31.680Z,95347.90
2018-09-15T14:04:02.478Z,95343.89
2018-09-15T14:06:32.958Z,95343.59
2018-09-15T14:09:03.935Z,95339.13
2018-09-15T14:11:34.306Z,95337.92
2018-09-15T14:14:05.174Z,95335.70
2018-09-15T14:16:35.655Z,95337.48
2018-09-15T14:19:06.103Z,95347.47
2018-09-15T14:21:37.624Z,95341.04
2018-09-15T14:24:08.998Z,95345.14
2018-09-15T14:26:39.602Z,95324.16
2018-09-15T14:29:10.009Z,95333.45
2018-09-15T14:31:40.337Z,95331.72
2018-09-15T14:34:11.014Z,95331.75
2018-09-15T14:36:41.376Z,95332.77
2018-09-15T14:39:12.593Z,95331.86
2018-09-15T14:41:43.082Z,95337.22
2018-09-15T14:44:13.710Z,95342.16
2018-09-15T14:46:43.971Z,95332.91
2018-09-15T14:49:14.395Z,95346.19
2018-09-15T14:51:44.702Z,95339.47
2018-09-15T14:54:15.627Z,95339.64
2018-09-15T14:56:45.887Z,95343.66
2018-09-15T14:59:16.548Z,95339.64
2018-09-15T15:01:47.229Z,95342.42
2018-09-15T15:04:18.320Z,95344.84
2018-09-15T15:06:48.577Z,95345.84
2018-09-15T15:09:18.917Z,95345.07
2018-09-15T15:11:49.455Z,95349.30
2018-09-15T15:14:21.285Z,95348.61
2018-09-15T15:16:51.794Z,95348.03
2018-09-15T15:19:21.527Z,95352.56
2018-09-15T15:21:51.538Z,95343.78
2018-09-15T15:24:22.081Z,95346.94
2018-09-15T15:26:51.646Z,95344.33
2018-09-15T15:29:21.348Z,95351.08
2018-09-15T15:31:51.038Z,95356.27
2018-09-15T15:34:20.752Z,95354.76
2018-09-15T15:36:50.628Z,95345.40
2018-09-15T15:39:20.511Z,95352.77
2018-09-15T15:42:53.640Z,95350.08
2018-09-15T15:45:23.612Z,95362.28
2018-09-15T15:47:53.590Z,95161.50
2018-09-15T15:50:23.449Z,95356.23
2018-09-15T15:52:53.190Z,95367.71
2018-09-15T15:55:23.180Z,95359.08
2018-09-15T15:57:52.943Z,95365.56
2018-09-15T16:00:22.901Z,95369.02
2018-09-15T16:02:52.723Z,95359.84
2018-09-15T16:05:22.421Z,95363.25
2018-09-15T16:07:52.160Z,95364.62
2018-09-15T16:10:21.818Z,95366.72
2018-09-15T16:12:51.505Z,95372.33
2018-09-15T16:16:23.958Z,95375.23
2018-09-15T16:18:53.690Z,95375.30
2018-09-15T16:21:23.434Z,95375.80
2018-09-15T16:23:53.309Z,95389.56
2018-09-15T16:26:23.312Z,95386.17
2018-09-15T16:28:53.298Z,95388.65
2018-09-15T16:31:22.985Z,95391.91
2018-09-15T16:33:52.939Z,95398.46
2018-09-15T16:36:22.888Z,95398.03
2018-09-15T16:38:52.771Z,95403.75
2018-09-15T16:41:23.169Z,95410.80
2018-09-15T16:43:53.696Z,95414.42
2018-09-15T16:46:23.850Z,95409.13
2018-09-15T16:48:54.062Z,95416.80
2018-09-15T16:51:24.986Z,95417.12
2018-09-15T16:53:55.595Z,95419.66
2018-09-15T16:56:56.598Z,95425.63
2018-09-15T16:59:26.802Z,95431.66
2018-09-15T17:01:57.830Z,95433.23
2018-09-15T17:04:28.358Z,95445.64
2018-09-15T17:06:58.679Z,95453.23
2018-09-15T17:09:30.099Z,95454.36
2018-09-15T17:12:00.368Z,95461.11
2018-09-15T17:14:30.494Z,95465.73
2018-09-15T17:17:00.800Z,95466.87
2018-09-15T17:19:31.923Z,95473.63
2018-09-15T17:22:02.020Z,95486.48
2018-09-15T17:24:32.487Z,95478.02
2018-09-15T17:27:02.853Z,95479.06
2018-09-15T17:29:33.814Z,95481.55
2018-09-15T17:32:04.068Z,95486.92
2018-09-15T17:34:34.468Z,95496.50
2018-09-15T17:37:04.847Z,95496.84
2018-09-15T17:39:36.265Z,95507.61
2018-09-15T17:42:06.854Z,95511.00
2018-09-15T17:44:37.435Z,95520.67
2018-09-15T17:47:07.718Z,95519.48
2018-09-15T17:49:39.361Z,95528.77
2018-09-15T17:52:09.794Z,95528.56
2018-09-15T17:54:40.278Z,95532.69
2018-09-15T17:57:10.769Z,95542.62
2018-09-15T17:59:41.996Z,95548.45
2018-09-15T18:02:12.157Z,95556.39
2018-09-15T18:04:42.628Z,95560.45
2018-09-15T18:07:13.058Z,95556.97
2018-09-15T18:09:44.136Z,95566.94
2018-09-15T18:12:14.370Z,95568.81
2018-09-15T18:14:44.604Z,95571.69
2018-09-15T18:17:15.066Z,95575.32
2018-09-15T18:19:46.321Z,95582.50
2018-09-15T18:22:16.729Z,95591.31
2018-09-15T18:24:47.168Z,95591.95
2018-09-15T18:27:17.678Z,95598.22
2018-09-15T18:29:48.912Z,95599.11
2018-09-15T18:32:19.026Z,95599.05
2018-09-15T18:34:49.842Z,95600.61
2018-09-15T18:37:20.130Z,95600.31
2018-09-15T18:39:51.786Z,95598.14
2018-09-15T18:42:22.246Z,95603.48
2018-09-15T18:44:52.675Z,95607.75
2018-09-15T18:47:22.660Z,95603.86
2018-09-15T18:49:53.818Z,95605.23
2018-09-15T18:52:23.935Z,95609.09
2018-09-15T18:54:54.542Z,95614.16
2018-09-15T18:57:24.811Z,95616.25
2018-09-15T18:59:56.051Z,95616.23
2018-09-15T19:02:26.309Z,95620.75
2018-09-15T19:04:56.850Z,95616.02
2018-09-15T19:07:27.496Z,95617.60
2018-09-15T19:09:58.362Z,95614.45
2018-09-15T19:12:28.528Z,95618.51
2018-09-15T19:14:59.063Z,95610.52
2018-09-15T19:17:29.428Z,95616.36
2018-09-15T19:20:00.084Z,95619.05
2018-09-15T19:22:30.481Z,95625.04
2018-09-15T19:25:01.074Z,95629.29
2018-09-15T19:27:31.452Z,95639.89
2018-09-15T19:30:02.749Z,95635.84
2018-09-15T19:32:32.908Z,95637.85
2018-09-15T19:35:03.614Z,95644.58
2018-09-15T19:37:33.853Z,95646.97
2018-09-15T19:40:05.928Z,95654.73
2018-09-15T19:42:36.292Z,95654.05
2018-09-15T19:45:07.010Z,95654.78
2018-09-15T19:47:37.239Z,95652.95
2018-09-15T19:50:08.649Z,95663.25
2018-09-15T19:52:39.181Z,95662.66
2018-09-15T19:55:09.814Z,95663.93
2018-09-15T19:57:40.322Z,95669.88
2018-09-15T20:00:11.323Z,95672.59
2018-09-15T20:02:41.601Z,95669.98
2018-09-15T20:05:12.150Z,95672.45
2018-09-15T20:07:42.451Z,95675.25
2018-09-15T20:10:12.984Z,95676.37
2018-09-15T20:12:43.501Z,95678.21
2018-09-15T20:15:24.064Z,95672.30
2018-09-15T20:17:53.011Z,95680.72
2018-09-15T20:20:22.346Z,95681.59
2018-09-15T20:22:54.294Z,95688.23
2018-09-15T20:25:24.358Z,95689.58
2018-09-15T20:27:54.720Z,95693.50
2018-09-15T20:30:25.366Z,95697.38
2018-09-15T20:32:56.008Z,95694.77
2018-09-15T20:35:26.242Z,95695.47
2018-09-15T20:37:56.627Z,95694.05
2018-09-15T20:40:28.097Z,95693.21
2018-09-15T20:42:58.172Z,95457.11
2018-09-15T20:45:28.837Z,95698.36
2018-09-15T20:47:59.306Z,95706.15
2018-09-15T20:50:29.724Z,95708.80
2018-09-15T20:53:00.247Z,95703.26
2018-09-15T20:55:30.410Z,95702.23
2018-09-15T20:58:00.343Z,95701.52
2018-09-15T21:00:31.241Z,95706.59
2018-09-15T21:03:01.654Z,95706.38
2018-09-15T21:05:31.838Z,95705.34
2018-09-15T21:08:02.100Z,95705.01
2018-09-15T21:10:33.327Z,95707.73
2018-09-15T21:13:03.964Z,95717.08
2018-09-15T21:15:34.286Z,95717.75
2018-09-15T21:18:04.727Z,95720.33
2018-09-15T21:20:35.374Z,95719.77
2018-09-15T21:23:05.995Z,95723.03
2018-09-15T21:25:36.191Z,95719.25
2018-09-15T21:28:06.660Z,95731.84
2018-09-15T21:30:37.542Z,95730.11
2018-09-15T21:33:08.290Z,95730.43
2018-09-15T21:35:38.703Z,95737.22
2018-09-15T21:38:09.138Z,95741.69
2018-09-15T21:40:40.394Z,95743.09
2018-09-15T21:43:10.882Z,95736.34
2018-09-15T21:45:41.605Z,95738.08
2018-09-15T21:48:12.016Z,95740.57
2018-09-15T21:50:43.490Z,95743.75
2018-09-15T21:53:13.814Z,95742.09
2018-09-15T21:55:44.134Z,95738.01
2018-09-15T21:58:14.667Z,95748.81
2018-09-15T22:00:45.647Z,95741.81
2018-09-15T22:03:18.413Z,95745.21
2018-09-15T22:05:49.051Z,95750.80
2018-09-15T22:08:19.680Z,95750.02
2018-09-15T22:10:50.377Z,95757.30
2018-09-15T22:13:20.832Z,95763.28
2018-09-15T22:15:51.275Z,95770.32
2018-09-15T22:18:21.694Z,95768.95
2018-09-15T22:20:52.694Z,95768.70
2018-09-15T22:23:23.220Z,95773.41
2018-09-15T22:25:53.648Z,95777.11
2018-09-15T22:28:24.106Z,95778.30
2018-09-15T22:30:55.986Z,95783.68
2018-09-15T22:33:26.519Z,95786.27
2018-09-15T22:35:57.095Z,95786.10
2018-09-15T22:38:27.562Z,95787.67
2018-09-15T22:40:58.707Z,95782.83
2018-09-15T22:43:29.026Z,95786.59
2018-09-15T22:45:59.717Z,95788.93
2018-09-15T22:48:30.201Z,95788.47
2018-09-15T22:51:01.388Z,95783.05
2018-09-15T22:53:32.132Z,95788.39
2018-09-15T22:56:02.396Z,95786.80
2018-09-15T22:58:32.802Z,95789.02
2018-09-15T23:01:04.185Z,95787.48
2018-09-15T23:03:34.657Z,95790.78
2018-09-15T23:06:05.130Z,95783.38
2018-09-15T23:08:35.633Z,95786.27
2018-09-15T23:11:06.678Z,95787.52
2018-09-15T23:13:37.245Z,95789.08
2018-09-15T23:16:07.834Z,95789.75
2018-09-15T23:18:38.267Z,95787.06
2018-09-15T23:21:09.252Z,95794.51
2018-09-15T23:23:39.477Z,95794.94
2018-09-15T23:26:09.891Z,95794.41
2018-09-15T23:28:40.187Z,95798.61
2018-09-15T23:31:11.186Z,95794.39
2018-09-15T23:33:41.802Z,95801.45
2018-09-15T23:36:12.425Z,95805.62
2018-09-15T23:38:42.946Z,95800.30
2018-09-15T23:41:14.341Z,95799.86
2018-09-15T23:43:44.973Z,95807.85
2018-09-15T23:46:15.078Z,95806.84
2018-09-15T23:48:45.225Z,95803.69
2018-09-15T23:51:16.117Z,95799.44
2018-09-15T23:53:46.638Z,95798.42
2018-09-15T23:56:17.322Z,95798.17
2018-09-15T23:58:47.702Z,95797.80
